Shideler, Indiana
Current Conditions -  °F | °C
As of 7:53 PM on Friday 24 Oct 2014 (Local Time) from KMIE Reporting Station
Broken Clouds Broken Clouds  
Wind Chill: 14°   Ceiling: 3600
Heat Index: 14°   Visibility: 10mi
Dew Point: 10°   Wind: 3mph
Humidity: 75%   Direction: 210°SSW
Pressure: 30.03"   Gusts: NA
Location:  40.3453°N, 85.3353°W
Report Text: KMIE 242353Z 21003KT 10SM BKN036 14/10 A3003 RMK AO2 SLP166 T01440100 10183 20144 53004
Loading
Personal Weather Stations






























Interactive Weather Map
Tropical Storm Tracking
New forecast layout! Learn more

10-Day Weather Forecast

Advertisements
Track Severe Weather on mobile